• Join FlightAware (Why Join?)
  • Login
  • US Flag 
09:58PM EDT


 

Airport Tracker/Info


-or-


 

Live Flight TrackerFlight Track Log ✈ AAL179 ✈ 28-Jul-2013 ✈ KJFK - KSFO

Flight Track Log - Related Links

Times and Time Zones

All times are in EDT time to prevent confusion due to time zone crossing. See the AAL179 flight status page for this flight to view local times or setup timezone preferences in your user account.

Time Position Orientation Groundspeed Altitude Reporting Facility
EDT Latitude Longitude Course Direction KTS MPH feet Rate Location/Type
10:52AM 40.6000 -73.8000 304° West 169 194 1,900  Level New York TRACON
10:53AM 40.5500 -73.8167 194° South 202 232 4,000 1,980 Climbing New York TRACON
10:54AM 40.8267 -74.1267 323° Northwest  Level FlightAware Approximate
10:54AM 40.5333 -73.7500 108° East 230 265 5,700  Level New York TRACON
10:55AM 40.8851 -74.2503 306° West  Level FlightAware Approximate
10:55AM 40.5833 -73.6667 52° Northeast 292 336 7,200  Level New York TRACON
10:56AM 40.9511 -74.3714 306° West  Level FlightAware Approximate
10:56AM 40.6500 -73.5833 43° Northeast 306 352 9,500  Level New York TRACON
10:57AM 41.0139 -74.4932 298° West  Level FlightAware Approximate
10:57AM 40.7333 -73.5333 24° Northeast 320 368 11,200  Level New York TRACON
10:58AM 41.0865 -74.6062 304° West  Level FlightAware Approximate
10:58AM 40.8167 -73.5167 North 353 406 13,100  Level New York TRACON
10:59AM 40.8833 -73.5833 323° Northwest 340 391 15,100 1,860 Climbing New York TRACON
11:00AM 40.9500 -73.6833 311° West 362 417 16,700 960 Climbing New York TRACON
11:01AM 41.0333 -73.7833 318° Northwest 446 513 17,100 540 Climbing New York TRACON
11:03AM 41.1344 -74.0658 295° West 363 418 18,700 960 Climbing New York Center
11:04AM 41.1369 -74.1983 271° West 348 400 20,400 1,620 Climbing New York Center
11:05AM 41.1314 -74.3136 266° West 353 406 22,000 1,500 Climbing New York Center
11:06AM 41.1336 -74.4486 271° West 366 421 23,500 1,380 Climbing New York Center
11:07AM 41.1347 -74.6031 271° West 386 444 24,800 1,140 Climbing New York Center
11:08AM 41.1550 -74.7503 280° West 397 457 25,800 1,140 Climbing New York Center
11:09AM 41.2208 -74.8947 301° West 417 480 27,200 1,320 Climbing New York Center
11:10AM 41.2942 -75.0567 301° West 448 516 28,400 1,260 Climbing New York Center
11:11AM 41.3617 -75.2075 301° West 464 534 29,700 1,200 Climbing New York Center
11:12AM 41.4267 -75.3583 300° West 477 549 30,900 1,500 Climbing New York Center
11:13AM 41.4872 -75.5119 298° West 476 548 32,800 1,560 Climbing New York Center
11:14AM 41.5308 -75.6675 291° West 456 525 34,100 1,380 Climbing New York Center
11:15AM 41.5744 -75.8178 291° West 442 509 35,600 1,020 Climbing New York Center
11:16AM 41.6144 -75.9567 291° West 442 509 36,200 840 Climbing New York Center
11:17AM 41.6594 -76.1128 291° West 442 509 37,300 900 Climbing New York Center
11:18AM 41.7025 -76.2664 291° West 442 509 38,000 300 Climbing New York Center
11:19AM 41.7450 -76.4228 290° West 442 509 38,000  Level New York Center
11:20AM 41.7889 -76.5933 289° West 442 509 38,000  Level New York Center
11:21AM 41.8333 -76.7475 291° West 442 509 38,000  Level New York Center
11:23AM 41.9069 -77.0228 290° West 456 525 38,000  Level Cleveland Center
11:24AM 41.9517 -77.1906 290° West 456 525 38,000  Level Cleveland Center
11:25AM 41.9936 -77.3478 290° West 451 519 38,000  Level Cleveland Center
11:26AM 42.0356 -77.5022 290° West 446 513 38,000  Level Cleveland Center
11:27AM 42.0792 -77.6567 291° West 446 513 38,000  Level Cleveland Center
11:28AM 42.1206 -77.8144 290° West 441 507 38,000  Level Cleveland Center
11:29AM 42.1617 -77.9725 289° West 441 507 38,000  Level Cleveland Center
11:30AM 42.2025 -78.1250 290° West 441 507 38,000  Level Cleveland Center
11:31AM 42.2433 -78.2806 290° West 441 507 38,000  Level Cleveland Center
11:32AM 42.2819 -78.4361 289° West 446 513 38,000  Level Cleveland Center
11:33AM 42.3222 -78.5950 289° West 446 513 38,000  Level Cleveland Center
11:34AM 42.3644 -78.7511 290° West 446 513 38,000  Level Cleveland Center
11:35AM 42.3956 -78.8794 288° West 446 513 38,000  Level Cleveland Center
11:36AM 42.4375 -79.0528 288° West 446 513 38,000  Level Cleveland Center
11:37AM 42.4817 -79.2347 288° West 446 513 38,000  Level Cleveland Center
11:38AM 42.5311 -79.3969 293° West 457 526 38,000  Level Cleveland Center
11:39AM 42.5767 -79.5569 291° West 462 532 38,000  Level Cleveland Center
11:40AM 42.6258 -79.7197 292° West 467 537 38,000  Level Cleveland Center
11:41AM 42.6769 -79.8828 293° West 467 537 38,000  Level Cleveland Center
11:42AM 42.7194 -80.0464 290° West 474 545 38,000  Level Cleveland Center
11:43AM 42.7703 -80.2128 293° West 467 537 38,000  Level Cleveland Center
11:44AM 42.8186 -80.3794 292° West 472 543 38,000  Level Cleveland Center
11:46AM 42.9167 -80.7000 293° West 470 541 38,000  Level Toronto Center
11:47AM 42.9500 -80.8667 285° West 470 541 38,000  Level Toronto Center
11:48AM 42.9833 -81.0167 287° West 470 541 38,000  Level Toronto Center
11:49AM 43.0333 -81.2000 291° West 470 541 38,000  Level Toronto Center
11:50AM 43.0667 -81.3667 285° West 460 529 38,000  Level Toronto Center
11:51AM 43.0833 -81.5500 277° West 460 529 38,000  Level Toronto Center
11:52AM 43.1167 -81.7167 285° West 460 529 38,000  Level Toronto Center
11:53AM 43.1500 -81.9000 284° West 460 529 38,000  Level Toronto Center
11:54AM 43.1500 -82.0500 270° West 450 518 38,000  Level Toronto Center
11:55AM 43.1833 -82.2167 285° West 450 518 38,000  Level Toronto Center
11:56AM 43.2000 -82.4000 277° West 450 518 38,000  Level Toronto Center
11:57AM 43.2333 -82.5667 285° West 450 518 38,000  Level Toronto Center
11:59AM 43.2583 -82.7753 279° West 446 513 38,000  Level Cleveland Center
12:00PM 43.2569 -82.9492 269° West 446 513 38,000  Level Cleveland Center
12:01PM 43.2556 -83.1144 269° West 440 506 38,000  Level Cleveland Center
12:02PM 43.2539 -83.2797 269° West 440 506 38,000  Level Cleveland Center
12:03PM 43.2561 -83.4481 271° West 440 506 38,000  Level Cleveland Center
12:04PM 43.2539 -83.6161 269° West 440 506 38,000  Level Cleveland Center
12:05PM 43.2494 -83.7842 268° West 440 506 38,000  Level Cleveland Center
12:06PM 43.2489 -83.9553 270° West 440 506 38,000  Level Cleveland Center
12:07PM 43.2475 -84.1403 269° West 440 506 38,000  Level Cleveland Center
12:08PM 43.2422 -84.3083 268° West 440 506 38,000  Level Cleveland Center
12:08PM 43.2422 -84.4358 270° West 452 520 38,000  Level Chicago Center
12:09PM 43.2397 -84.6097 269° West 457 526 38,000  Level Chicago Center
12:10PM 43.2372 -84.7811 269° West 452 520 38,000  Level Chicago Center
12:12PM 43.2336 -84.9506 268° West 448 516 38,000  Level Chicago Center
12:13PM 43.2286 -85.1553 268° West 449 517 38,000  Level Chicago Center
12:14PM 43.2247 -85.3250 268° West 447 514 38,000  Level Chicago Center
12:15PM 43.2214 -85.4947 269° West 448 516 38,000  Level Chicago Center
12:16PM 43.2172 -85.6642 268° West 449 517 38,000  Level Chicago Center
12:17PM 43.2131 -85.8322 268° West 448 516 38,000  Level Chicago Center
12:18PM 43.2081 -86.0325 268° West 449 517 38,000  Level Chicago Center
12:19PM 43.2033 -86.2000 268° West 450 518 38,000  Level Chicago Center
12:20PM 43.1972 -86.3656 267° West 441 507 38,000  Level Chicago Center
12:21PM 43.1914 -86.5350 267° West 442 509 38,000  Level Chicago Center
12:22PM 43.1861 -86.7014 268° West 445 512 38,000  Level Chicago Center
12:23PM 43.1781 -86.9019 267° West 444 511 38,000  Level Chicago Center
12:24PM 43.1717 -87.0689 267° West 442 509 38,000  Level Chicago Center
12:25PM 43.1642 -87.2381 267° West 447 514 38,000  Level Chicago Center
12:26PM 43.1569 -87.4056 267° West 440 506 38,000  Level Chicago Center
12:27PM 43.1492 -87.6025 267° West 446 513 38,000  Level Chicago Center
12:28PM 43.1417 -87.7733 267° West 448 516 38,000  Level Chicago Center
12:29PM 43.1328 -87.9447 266° West 451 519 38,000  Level Chicago Center
12:30PM 43.1258 -88.1150 267° West 448 516 38,000  Level Chicago Center
12:31PM 43.1161 -88.2856 266° West 447 514 38,000  Level Chicago Center
12:32PM 43.1064 -88.4575 266° West 449 517 38,000  Level Chicago Center
12:33PM 43.0947 -88.6286 265° West 447 514 38,000  Level Chicago Center
12:34PM 43.0833 -88.8250 266° West 441 507 38,000  Level Chicago Center
12:35PM 43.0728 -88.9914 265° West 438 504 38,000  Level Chicago Center
12:36PM 43.0625 -89.1547 265° West 432 497 38,000  Level Chicago Center
12:37PM 43.0519 -89.3172 265° West 429 494 38,000  Level Chicago Center
12:38PM 43.0408 -89.4792 265° West 427 491 38,000  Level Chicago Center
12:39PM 43.0294 -89.6389 264° West 423 487 38,000  Level Chicago Center
12:41PM 43.0147 -89.8253 264° West 422 486 38,000  Level Chicago Center
12:42PM 43.0031 -89.9781 264° West 418 481 38,000  Level Chicago Center
12:43PM 42.9689 -90.1336 253° West 430 495 38,000  Level Chicago Center
12:44PM 42.9317 -90.2867 252° West 428 493 38,000  Level Chicago Center
12:45PM 42.8944 -90.4386 252° West 428 493 38,000  Level Chicago Center
12:46PM 42.8506 -90.6214 252° West 426 490 38,000  Level Chicago Center
12:47PM 42.8136 -90.7728 252° West 425 489 38,000  Level Chicago Center
12:48PM 42.7758 -90.9247 251° West 426 490 38,000  Level Chicago Center
12:49PM 42.7372 -91.0761 251° West 426 490 38,000  Level Chicago Center
12:50PM 42.6992 -91.2278 251° West 426 490 38,000  Level Chicago Center
12:51PM 42.6519 -91.4081 250° West 422 486 38,000  Level Chicago Center
12:52PM 42.6128 -91.5611 251° West 424 488 38,000  Level Chicago Center
12:53PM 42.5756 -91.7122 252° West 417 480 38,000  Level Chicago Center
12:54PM 42.5364 -91.8608 250° West 419 482 38,000  Level Chicago Center
12:55PM 42.4981 -92.0069 250° West 414 476 38,000  Level Chicago Center
12:56PM 42.4628 -92.1511 252° West 408 470 38,000  Level Chicago Center
12:57PM 42.4300 -92.2931 253° West 400 460 38,000  Level Chicago Center
12:58PM 42.3889 -92.4642 252° West 401 461 38,000  Level Chicago Center
12:59PM 42.3556 -92.6044 252° West 396 456 38,000  Level Chicago Center
01:00PM 42.3208 -92.7431 251° West 394 453 38,000  Level Chicago Center
01:01PM 42.2864 -92.8814 251° West 393 452 38,000  Level Chicago Center
01:02PM 42.2525 -93.0200 252° West 393 452 38,000  Level Chicago Center
01:03PM 42.2100 -93.1883 251° West 397 457 38,000  Level Chicago Center
01:04PM 42.1747 -93.3286 251° West 399 459 38,000  Level Chicago Center
01:05PM 42.1381 -93.4692 251° West 401 461 38,000  Level Chicago Center
01:06PM 42.1000 -93.6103 250° West 404 465 38,000  Level Chicago Center
01:07PM 42.0633 -93.7514 251° West 403 464 38,000  Level Chicago Center
01:08PM 42.0183 -93.9203 250° West 403 464 38,000  Level Chicago Center
01:09PM 41.9833 -94.0603 251° West 399 459 38,000  Level Chicago Center
01:11PM 41.9519 -94.2017 253° West 399 459 38,000  Level Chicago Center
01:12PM 41.9206 -94.3414 253° West 397 457 38,000  Level Chicago Center
01:13PM 41.8722 -94.5522 253° West 392 451 38,000  Level Minneapolis Center
01:14PM 41.8386 -94.6914 252° West 390 449 38,000  Level Minneapolis Center
01:15PM 41.8061 -94.8300 253° West 390 449 38,000  Level Minneapolis Center
01:16PM 41.7739 -94.9689 253° West 390 449 38,000  Level Minneapolis Center
01:17PM 41.7267 -95.1617 252° West 389 448 38,000  Level Minneapolis Center
01:18PM 41.6933 -95.3017 252° West 394 453 38,000  Level Minneapolis Center
01:19PM 41.6592 -95.4392 252° West 392 451 38,100 240 Climbing Minneapolis Center
01:20PM 41.6256 -95.5753 252° West 389 448 38,600 540 Climbing Minneapolis Center
01:21PM 41.5842 -95.7389 251° West 392 451 39,300 600 Climbing Minneapolis Center
01:22PM 41.5506 -95.8800 252° West 399 459 39,900 300 Climbing Minneapolis Center
01:24PM 41.5156 -96.0214 252° West 402 463 40,000  Climbing Minneapolis Center
01:25PM 41.4786 -96.1642 251° West 406 467 40,000  Level Minneapolis Center
01:26PM 41.4433 -96.3061 252° West 404 465 40,000  Level Minneapolis Center
01:27PM 41.4028 -96.4658 251° West 399 459 40,000  Level Minneapolis Center
01:28PM 41.3669 -96.6050 251° West 398 458 40,000  Level Minneapolis Center
01:29PM 41.3314 -96.7422 251° West 394 453 40,000  Level Minneapolis Center
01:30PM 41.2964 -96.8789 251° West 393 452 40,000  Level Minneapolis Center
01:31PM 41.2606 -97.0186 251° West 398 458 40,000  Level Minneapolis Center
01:32PM 41.2236 -97.1589 251° West 403 464 40,000  Level Minneapolis Center
01:33PM 41.1783 -97.3278 250° West 404 465 40,000  Level Minneapolis Center
01:34PM 41.1461 -97.4506 251° West 403 464 40,000  Level Minneapolis Center
01:35PM 41.1000 -97.6189 250° West 404 465 40,000  Level Minneapolis Center
01:36PM 41.0628 -97.7592 251° West 404 465 40,000  Level Minneapolis Center
01:37PM 41.0250 -97.8997 250° West 404 465 40,000  Level Minneapolis Center
01:38PM 40.9869 -98.0397 250° West 404 465 40,000  Level Minneapolis Center
01:39PM 40.9550 -98.1836 254° West 405 466 40,000  Level Minneapolis Center
01:40PM 40.9219 -98.3275 253° West 406 467 40,000  Level Minneapolis Center
01:41PM 40.8836 -98.4847 252° West 408 470 40,000  Level Minneapolis Center
01:42PM 40.8483 -98.6269 252° West 408 470 40,000  Level Minneapolis Center
01:43PM 40.8125 -98.7711 252° West 412 474 40,000  Level Minneapolis Center
01:44PM 40.7781 -98.9144 252° West 411 473 40,000  Level Minneapolis Center
01:45PM 40.7428 -99.0569 252° West 410 472 40,000  Level Minneapolis Center
01:46PM 40.7156 -99.1642 252° West 408 470 40,000  Level Denver Center
01:47PM 40.6719 -99.3361 252° West 410 472 40,000  Level Denver Center
01:48PM 40.6356 -99.4789 251° West 410 472 40,000  Level Denver Center
01:49PM 40.6000 -99.6208 252° West 408 470 40,000  Level Denver Center
01:50PM 40.5628 -99.7639 251° West 411 473 40,000  Level Denver Center
01:51PM 40.5258 -99.9058 251° West 410 472 40,000  Level Denver Center
01:52PM 40.4939 -100.0669 255° West 409 471 40,000  Level Denver Center
01:53PM 40.4800 -100.2058 263° West 402 463 40,000  Level Denver Center
01:54PM 40.4611 -100.3694 261° West 405 466 40,000  Level Denver Center
01:55PM 40.4456 -100.5078 262° West 399 459 40,000  Level Denver Center
01:56PM 40.4303 -100.6478 262° West 403 464 40,000  Level Denver Center
01:57PM 40.4119 -100.8089 262° West 398 458 40,000  Level Denver Center
01:58PM 40.3961 -100.9483 262° West 401 461 40,000  Level Denver Center
01:59PM 40.3769 -101.1083 261° West 397 457 40,000  Level Denver Center
02:00PM 40.3608 -101.2472 261° West 399 459 40,000  Level Denver Center
02:01PM 40.3403 -101.4058 260° West 395 455 40,000  Level Denver Center
02:03PM 40.3233 -101.5431 261° West 397 457 40,000  Level Denver Center
02:04PM 40.3025 -101.7011 260° West 394 453 40,000  Level Denver Center
02:05PM 40.2861 -101.8381 261° West 397 457 40,000  Level Denver Center
02:06PM 40.2639 -101.9964 260° West 396 456 40,000  Level Denver Center
02:07PM 40.2481 -102.1333 261° West 398 458 40,000  Level Denver Center
02:08PM 40.2269 -102.2922 260° West 397 457 40,000  Level Denver Center
02:09PM 40.2092 -102.4281 260° West 396 456 40,000  Level Denver Center
02:10PM 40.1908 -102.5650 260° West 398 458 40,000  Level Denver Center
02:11PM 40.1714 -102.7219 261° West 396 456 40,000  Level Denver Center
02:12PM 40.1517 -102.8642 260° West 398 458 40,000  Level Denver Center
02:13PM 40.1358 -103.0061 262° West 397 457 40,000  Level Denver Center
02:14PM 40.1178 -103.1483 261° West 396 456 40,000  Level Denver Center
02:15PM 40.0958 -103.3181 260° West 397 457 40,000  Level Denver Center
02:16PM 40.0781 -103.4608 261° West 400 460 40,000  Level Denver Center
02:17PM 40.0578 -103.6003 259° West 394 453 40,000  Level Denver Center
02:18PM 40.0386 -103.7439 260° West 402 463 40,000  Level Denver Center
02:19PM 40.0194 -103.8858 260° West 400 460 40,000  Level Denver Center
02:20PM 39.9950 -104.0539 259° West 394 453 40,000  Level Denver Center
02:21PM 39.9819 -104.1947 263° West 392 451 40,000  Level Denver Center
02:22PM 39.9669 -104.3342 262° West 388 447 40,000  Level Denver Center
02:23PM 39.9511 -104.4750 262° West 394 453 40,000  Level Denver Center
02:24PM 39.9369 -104.6161 263° West 397 457 40,000  Level Denver Center
02:25PM 39.9167 -104.7817 261° West 393 452 40,000  Level Denver Center
02:26PM 39.9006 -104.9153 261° West 376 433 40,000  Level Denver Center
02:27PM 39.8836 -105.0669 262° West 404 465 40,000  Level Denver Center
02:28PM 39.8667 -105.2086 261° West 402 463 40,000  Level Denver Center
02:29PM 39.8494 -105.3486 261° West 395 455 40,000  Level Denver Center
02:30PM 39.8297 -105.5197 262° West 399 459 40,000  Level Denver Center
02:32PM 39.8119 -105.6614 261° West 403 464 40,000  Level Denver Center
02:33PM 39.7964 -105.8033 262° West 395 455 40,000  Level Denver Center
02:34PM 39.7781 -105.9433 260° West 395 455 40,000  Level Denver Center
02:35PM 39.7617 -106.0864 262° West 401 461 40,000  Level Denver Center
02:36PM 39.7417 -106.2556 261° West 397 457 40,000  Level Denver Center
02:37PM 39.7219 -106.3972 260° West 398 458 40,000  Level Denver Center
02:38PM 39.7028 -106.5447 260° West 400 460 40,000  Level Denver Center
02:39PM 39.6844 -106.6856 260° West 400 460 40,000  Level Denver Center
02:40PM 39.6653 -106.8225 260° West 395 455 40,000  Level Denver Center
02:41PM 39.6436 -106.9844 260° West 403 464 40,000  Level Denver Center
02:42PM 39.6244 -107.1222 260° West 404 465 40,000  Level Denver Center
02:43PM 39.6019 -107.2797 260° West 401 461 40,000  Level Denver Center
02:44PM 39.5822 -107.4158 259° West 400 460 40,000  Level Denver Center
02:45PM 39.5600 -107.5744 260° West 400 460 40,000  Level Denver Center
02:46PM 39.5411 -107.7072 260° West 394 453 40,000  Level Denver Center
02:47PM 39.5186 -107.8644 260° West 396 456 40,000  Level Denver Center
02:48PM 39.4981 -108.0011 259° West 401 461 40,000  Level Denver Center
02:49PM 39.4619 -108.1536 253° West 398 458 40,000  Level Denver Center
02:50PM 39.4286 -108.2842 252° West 398 458 40,000  Level Denver Center
02:51PM 39.3967 -108.4164 253° West 408 470 40,000  Level Denver Center
02:52PM 39.3597 -108.5689 253° West 395 455 40,000  Level Denver Center
02:53PM 39.3272 -108.7000 252° West 396 456 40,000  Level Denver Center
02:54PM 39.2892 -108.8528 252° West 397 457 40,000  Level Denver Center
02:55PM 39.2567 -108.9822 252° West 392 451 40,000  Level Denver Center
02:56PM 39.2197 -109.1325 252° West 391 450 40,000  Level Denver Center
02:57PM 39.1872 -109.2606 252° West 392 451 40,000  Level Denver Center
02:58PM 39.1539 -109.3881 251° West 392 451 40,000  Level Denver Center
02:59PM 39.1167 -109.5364 252° West 390 449 40,000  Level Denver Center
03:00PM 39.0856 -109.6642 253° West 388 447 40,000  Level Denver Center
03:02PM 39.0622 -109.8167 259° West 388 447 40,000  Level Denver Center
03:03PM 39.0508 -109.9517 264° West 391 450 40,000  Level Denver Center
03:04PM 39.0367 -110.1081 263° West 393 452 40,000  Level Denver Center
03:05PM 39.0228 -110.2408 262° West 393 452 40,000  Level Denver Center
03:06PM 39.0067 -110.3969 262° West 393 452 40,000  Level Denver Center
03:07PM 38.9953 -110.5306 264° West 394 453 40,000  Level Denver Center
03:08PM 38.9794 -110.6886 263° West 400 460 40,000  Level Denver Center
03:09PM 38.9583 -110.8894 262° West 399 459 40,000  Level Salt Lake Center
03:10PM 38.9439 -111.0208 262° West 402 463 40,000  Level Salt Lake Center
03:11PM 38.9286 -111.1619 262° West 402 463 40,000  Level Salt Lake Center
03:12PM 38.9106 -111.3322 262° West 403 464 40,000  Level Salt Lake Center
03:13PM 38.8947 -111.4739 262° West 402 463 40,000  Level Salt Lake Center
03:14PM 38.8786 -111.6161 262° West 404 465 40,000  Level Salt Lake Center
03:15PM 38.8625 -111.7592 262° West 406 467 40,000  Level Salt Lake Center
03:16PM 38.8447 -111.9011 261° West 405 466 40,000  Level Salt Lake Center
03:17PM 38.8278 -112.0433 261° West 405 466 40,000  Level Salt Lake Center
03:18PM 38.8056 -112.2142 261° West 407 468 40,000  Level Salt Lake Center
03:20PM 38.7886 -112.3575 261° West 408 470 40,000  Level Salt Lake Center
03:21PM 38.7703 -112.4992 261° West 406 467 40,000  Level Salt Lake Center
03:22PM 38.7531 -112.6428 261° West 409 471 40,000  Level Salt Lake Center
03:23PM 38.7347 -112.7864 261° West 410 472 40,000  Level Salt Lake Center
03:24PM 38.7139 -112.9561 261° West 406 467 40,000  Level Salt Lake Center
03:25PM 38.6956 -113.1025 261° West 414 476 40,000  Level Salt Lake Center
03:26PM 38.6772 -113.2431 261° West 405 466 40,000  Level Salt Lake Center
03:27PM 38.6600 -113.3783 261° West 393 452 40,000  Level Salt Lake Center
03:28PM 38.6422 -113.5147 261° West 391 450 40,000  Level Salt Lake Center
03:29PM 38.6247 -113.6531 261° West 394 453 40,000  Level Salt Lake Center
03:30PM 38.6028 -113.8161 260° West 392 451 40,000  Level Salt Lake Center
03:31PM 38.5842 -113.9536 260° West 393 452 40,000  Level Salt Lake Center
03:32PM 38.5656 -114.0936 260° West 400 460 40,000  Level Salt Lake Center
03:33PM 38.5464 -114.2311 260° West 397 457 40,000  Level Salt Lake Center
03:34PM 38.5278 -114.3675 260° West 394 453 40,000  Level Salt Lake Center
03:35PM 38.5036 -114.5311 259° West 393 452 40,000  Level Salt Lake Center
03:36PM 38.4847 -114.6686 260° West 394 453 40,000  Level Salt Lake Center
03:37PM 38.4661 -114.8058 260° West 395 455 40,000  Level Salt Lake Center
03:38PM 38.4461 -114.9425 259° West 395 455 40,000  Level Salt Lake Center
03:39PM 38.4247 -115.0808 259° West 397 457 40,000  Level Salt Lake Center
03:40PM 38.4056 -115.2194 260° West 398 458 40,000  Level Salt Lake Center
03:41PM 38.3806 -115.3833 259° West 401 461 40,000  Level Salt Lake Center
03:42PM 38.3606 -115.5206 260° West 396 456 40,000  Level Salt Lake Center
03:43PM 38.3397 -115.6586 259° West 396 456 40,000  Level Salt Lake Center
03:44PM 38.3631 -115.7989 282° West 420 483 40,000  Level Salt Lake Center
03:45PM 38.4542 -115.9089 317° Northwest 457 526 40,000  Level Salt Lake Center
03:46PM 38.5731 -116.0275 322° Northwest 454 522 40,000  Level Salt Lake Center
03:47PM 38.6356 -116.1544 302° West 430 495 40,000  Level Salt Lake Center
03:48PM 38.7006 -116.2839 303° West 433 498 40,000  Level Salt Lake Center
03:49PM 38.7292 -116.4217 285° West 406 467 40,000  Level Salt Lake Center
03:51PM 38.6872 -116.5456 247° West 382 440 40,000  Level Salt Lake Center
03:52PM 38.6261 -116.6550 234° Southwest 379 436 40,000  Level Salt Lake Center
03:53PM 38.5517 -116.7878 234° Southwest 382 440 40,000  Level Salt Lake Center
03:54PM 38.4908 -116.8978 235° Southwest 381 438 40,000  Level Salt Lake Center
03:55PM 38.4292 -117.0089 235° Southwest 384 442 40,000  Level Salt Lake Center
03:56PM 38.3656 -117.1203 234° Southwest 389 448 40,000  Level Salt Lake Center
03:57PM 38.3039 -117.2322 235° Southwest 392 451 40,000  Level Salt Lake Center
03:58PM 38.2281 -117.3650 234° Southwest 395 455 40,000  Level Salt Lake Center
03:59PM 38.1642 -117.4747 233° Southwest 393 452 40,000  Level Salt Lake Center
04:00PM 38.1008 -117.5869 234° Southwest 392 451 40,000  Level Salt Lake Center
04:01PM 38.0389 -117.7008 235° Southwest 393 452 40,000  Level Salt Lake Center
04:02PM 37.9892 -117.8236 243° Southwest 399 459 40,000  Level Salt Lake Center
04:03PM 37.9464 -117.9833 251° West 399 459 40,000  Level Salt Lake Center
04:04PM 37.9128 -118.1161 252° West 396 456 40,000  Level Salt Lake Center
04:05PM 37.8781 -118.2494 252° West 398 458 40,000  Level Salt Lake Center
04:06PM 37.8469 -118.3831 254° West 396 456 40,000  Level Salt Lake Center
04:07PM 37.7972 -118.5681 251° West 396 456 40,000  Level Oakland Center
04:08PM 37.7625 -118.7006 252° West 398 458 40,000  Level Oakland Center
04:09PM 37.7286 -118.8303 252° West 405 466 40,000  Level Oakland Center
04:10PM 37.7008 -118.9731 256° West 416 479 40,000  Level Oakland Center
04:11PM 37.6944 -119.1222 267° West 426 490 40,000 -300 Level Oakland Center
04:13PM 37.6878 -119.3008 267° West 424 488 39,500 -540 Descending Oakland Center
04:14PM 37.6842 -119.4461 268° West 416 479 38,900 -720 Descending Oakland Center
04:15PM 37.6800 -119.5883 268° West 408 470 38,100 -1,380 Descending Oakland Center
04:16PM 37.6756 -119.7297 268° West 405 466 36,100 -2,520 Descending Oakland Center
04:17PM 37.6697 -119.8747 267° West 412 474 32,900 -2,040 Descending Oakland Center
04:18PM 37.6658 -120.0250 268° West 426 490 32,000 -720 Descending Oakland Center
04:19PM 37.6603 -120.1769 267° West 432 497 31,500 -1,140 Descending Oakland Center
04:20PM 37.6525 -120.3278 266° West 431 496 29,700 -2,340 Descending Oakland Center
04:21PM 37.6456 -120.4997 267° West 413 475 26,800 -2,520 Descending Oakland Center
04:22PM 37.6389 -120.6408 267° West 404 465 24,600 -1,920 Descending Oakland Center
04:23PM 37.6333 -120.7667 267° West 387 445 23,100 -1,680 Descending Northern Cal TRACON
04:24PM 37.6333 -120.9000 270° West 384 442 21,500 -1,680 Descending Northern Cal TRACON
04:25PM 37.6167 -121.0333 261° West 377 434 19,800 -1,800 Descending Northern Cal TRACON
04:26PM 37.6000 -121.1500 260° West 364 419 17,900 -1,980 Descending Northern Cal TRACON
04:27PM 37.6000 -121.2667 270° West 343 395 15,900 -1,860 Descending Northern Cal TRACON
04:28PM 37.5833 -121.3833 260° West 330 380 14,400 -1,800 Descending Northern Cal TRACON
04:29PM 37.5667 -121.5000 260° West 325 374 12,400 -1,560 Descending Northern Cal TRACON
04:30PM 37.5500 -121.6000 258° West 308 354 11,300 -1,140 Descending Northern Cal TRACON
04:31PM 37.5333 -121.7000 258° West 284 327 10,200 -1,080 Descending Northern Cal TRACON
04:32PM 37.5000 -121.7833 243° Southwest 283 326 9,200 -1,140 Descending Northern Cal TRACON
04:33PM 37.4833 -121.9000 260° West 281 323 8,000 -1,080 Descending Northern Cal TRACON
04:34PM 37.5000 -121.9667 288° West 254 292 7,100 -1,080 Descending Northern Cal TRACON
04:35PM 37.5167 -122.0500 284° West 205 236 6,000 -1,260 Descending Northern Cal TRACON
04:36PM 37.5333 -122.1000 293° West 194 223 4,700 -1,320 Descending Northern Cal TRACON
04:37PM 37.5667 -122.1667 302° West 190 219 3,400 -1,380 Descending Northern Cal TRACON
04:38PM 37.5833 -122.2333 288° West 180 207 2,000 -1,080 Descending Northern Cal TRACON
04:39PM 37.5833 -122.2833 270° West 148 170 1,300 -660 Descending Northern Cal TRACON
04:40PM 37.6000 -122.3167 302° West 138 159 700 -660 Descending Northern Cal TRACON